Time;durP1;ratioP1;P1;durP2;ratioP2;P2;SDS_P1;SDS_P2;PMS_P1;PMS_P2;Temp;Humidity;BMP_temperature;BMP_pressure;BME280_temperature;BME280_humidity;BME280_pressure;Samples;Min_cycle;Max_cycle;Signal;HPM_P1;HPM_P2
2023/03/18 00:01:28;;;;;;;8.77;6.57;;;9.40;99.90;;;-141.84;48.68;19856.53;5053857;28;20229;-61
2023/03/18 00:03:56;;;;;;;8.70;6.57;;;9.30;99.90;;;-141.84;48.76;19834.16;5053695;28;20229;-62
2023/03/18 00:06:25;;;;;;;7.60;6.17;;;9.30;99.90;;;-141.84;49.17;19821.97;5054446;28;20230;-62
2023/03/18 00:08:53;;;;;;;11.33;6.43;;;9.30;99.90;;;-141.84;48.74;19834.16;5073433;28;20225;-61
2023/03/18 00:11:23;;;;;;;8.47;6.40;;;9.30;99.90;;;-141.84;48.57;19838.22;5073561;28;20224;-62
2023/03/18 00:13:51;;;;;;;7.90;6.93;;;9.20;99.90;;;-141.84;48.93;19852.44;5074526;28;20585;-62
2023/03/18 00:16:20;;;;;;;9.27;6.87;;;9.20;99.90;;;-141.84;48.92;19836.19;5071449;28;20231;-62
2023/03/18 00:18:49;;;;;;;8.07;6.53;;;9.20;99.90;;;-141.84;49.49;19824.00;5072314;28;20594;-63
2023/03/18 00:21:18;;;;;;;11.03;7.27;;;9.20;99.90;;;-141.84;49.00;19832.13;5065217;28;20684;-63
2023/03/18 00:23:47;;;;;;;9.77;6.43;;;9.20;99.90;;;-141.84;49.25;19821.97;5061623;28;20309;-62
2023/03/18 00:26:16;;;;;;;11.33;7.10;;;9.20;99.90;;;-141.84;48.92;19850.41;5061372;28;20197;-62
2023/03/18 00:28:46;;;;;;;8.63;6.77;;;9.20;99.90;;;-141.84;48.98;19852.44;5061462;28;20228;-61
2023/03/18 00:31:14;;;;;;;10.17;6.73;;;9.20;99.90;;;-141.84;49.16;19817.91;5062418;28;20220;-62
2023/03/18 00:33:44;;;;;;;8.17;6.50;;;9.20;99.90;;;-141.84;49.01;19895.13;5062324;28;20243;-63
2023/03/18 00:36:14;;;;;;;9.20;6.47;;;9.20;99.90;;;-141.84;49.05;19824.00;5062387;28;20255;-62
2023/03/18 00:38:45;;;;;;;7.00;6.20;;;9.30;99.90;;;-141.84;49.33;19852.44;5056635;28;20225;-62
2023/03/18 00:41:15;;;;;;;9.23;6.73;;;9.20;99.90;;;-141.84;49.09;19846.34;5062585;28;20213;-61
2023/03/18 00:43:51;;;;;;;8.03;6.47;;;9.20;99.90;;;-141.84;49.07;19813.84;5060641;28;20231;-63
2023/03/18 00:46:23;;;;;;;7.30;5.90;;;9.20;99.90;;;-141.84;48.93;19819.94;5053706;28;20231;-62
2023/03/18 00:48:53;;;;;;;7.00;5.90;;;9.20;99.90;;;-141.84;49.02;19858.56;5052645;28;20665;-61
2023/03/18 00:51:24;;;;;;;9.33;5.80;;;9.20;99.90;;;-141.84;49.34;19815.88;5052795;28;20221;-62
2023/03/18 00:53:56;;;;;;;7.73;6.23;;;9.20;99.90;;;-141.84;49.12;19824.00;5052820;28;20240;-61
2023/03/18 00:56:28;;;;;;;7.50;6.13;;;9.20;99.90;;;-141.84;49.38;19795.53;5053006;28;20196;-61
2023/03/18 00:58:58;;;;;;;7.53;6.00;;;9.10;99.90;;;-141.84;49.71;19824.00;5053288;28;20197;-61
2023/03/18 01:01:28;;;;;;;8.10;6.73;;;9.10;99.90;;;-141.84;49.14;19817.91;5052449;28;20243;-61
2023/03/18 01:03:57;;;;;;;8.93;6.37;;;9.20;99.90;;;-141.84;49.88;19842.28;5052645;28;20225;-62
2023/03/18 01:06:28;;;;;;;7.87;6.50;;;9.20;99.90;;;-141.84;49.45;19852.44;5052440;28;20575;-61
2023/03/18 01:08:58;;;;;;;9.27;6.53;;;9.20;99.90;;;-141.84;48.78;19880.91;5051517;28;20225;-61
2023/03/18 01:11:27;;;;;;;8.67;6.47;;;9.30;99.90;;;-141.84;49.57;19838.22;5051873;28;20201;-61
2023/03/18 01:13:58;;;;;;;8.10;6.30;;;9.20;99.90;;;-141.84;48.58;19836.19;5052709;28;20217;-61
2023/03/18 01:16:27;;;;;;;8.27;5.80;;;9.30;99.90;;;-141.84;49.31;19850.41;5052051;28;20249;-62
2023/03/18 01:18:55;;;;;;;7.47;6.43;;;9.30;99.90;;;-141.84;49.23;19815.88;5052482;28;20300;-62
2023/03/18 01:21:24;;;;;;;9.67;6.43;;;9.30;99.90;;;-141.84;48.89;19882.94;5065245;28;20241;-62
2023/03/18 01:23:53;;;;;;;9.03;6.63;;;9.30;99.90;;;-141.84;49.18;19821.97;5072139;28;20217;-61
2023/03/18 01:26:22;;;;;;;10.10;6.37;;;9.30;99.90;;;-141.84;49.28;19862.63;5072313;28;20270;-60
2023/03/18 01:28:50;;;;;;;9.77;6.90;;;9.30;99.90;;;-141.84;49.19;19846.34;5072779;28;20203;-61
2023/03/18 01:31:20;;;;;;;7.43;6.20;;;9.30;99.90;;;-141.84;49.24;19840.25;5071555;28;20647;-62
2023/03/18 01:33:48;;;;;;;9.73;6.37;;;9.30;99.90;;;-141.84;49.03;19862.63;5071745;28;20576;-61
2023/03/18 01:36:17;;;;;;;7.83;6.23;;;9.30;99.90;;;-141.84;49.22;19850.41;5071912;28;20248;-60
2023/03/18 01:38:45;;;;;;;8.43;6.40;;;9.30;99.90;;;-141.84;49.15;19850.41;5071924;28;20224;-62
2023/03/18 01:41:15;;;;;;;10.03;6.47;;;9.30;99.90;;;-141.84;49.50;19834.16;5071649;28;20231;-62
2023/03/18 01:43:43;;;;;;;9.27;6.77;;;9.20;99.90;;;-141.84;49.42;19801.66;5071596;28;20225;-60
2023/03/18 01:46:37;;;;;;;7.97;6.47;;;9.20;99.90;;;-141.84;49.03;19868.72;5070709;28;20232;-61
2023/03/18 01:49:11;;;;;;;9.93;6.63;;;9.20;99.90;;;-141.84;48.95;19858.56;5071590;28;20315;-62
2023/03/18 01:51:43;;;;;;;11.13;6.67;;;9.30;99.90;;;-141.84;49.66;19895.13;5071343;28;20699;-62
2023/03/18 01:54:16;;;;;;;9.77;6.47;;;9.20;99.90;;;-141.84;50.14;19785.38;5071701;28;20281;-61
2023/03/18 01:56:49;;;;;;;10.07;6.80;;;9.10;99.90;;;-141.84;50.05;19809.78;5071385;28;20224;-60
2023/03/18 01:59:21;;;;;;;8.07;6.10;;;9.10;99.90;;;-141.84;49.77;19834.16;5071542;28;20548;-60
2023/03/18 02:01:57;;;;;;;9.47;6.50;;;9.10;99.90;;;-141.84;50.19;19817.91;5071580;28;20216;-61
2023/03/18 02:04:32;;;;;;;7.97;6.53;;;9.10;99.90;;;-141.84;49.70;19797.59;5071425;28;20223;-62
2023/03/18 02:07:01;;;;;;;9.57;6.47;;;9.10;99.90;;;-141.84;49.64;19834.16;5071150;28;20227;-60
2023/03/18 02:09:29;;;;;;;7.77;5.90;;;9.20;99.90;;;-141.84;50.38;19813.84;5070352;28;20288;-61
2023/03/18 02:12:01;;;;;;;8.87;6.47;;;9.10;99.90;;;-141.84;49.86;19832.13;5071143;28;20221;-61
2023/03/18 02:14:29;;;;;;;8.73;6.17;;;9.10;99.90;;;-141.84;50.36;19795.53;5071431;28;20631;-62
2023/03/18 02:17:13;;;;;;;8.57;6.50;;;9.10;99.90;;;-141.84;50.22;19779.28;5071933;28;20200;-62
2023/03/18 02:19:58;;;;;;;8.73;6.60;;;9.10;99.90;;;-141.84;50.95;19801.66;5073374;28;20862;-62
2023/03/18 02:22:32;;;;;;;7.83;6.23;;;9.00;99.90;;;-141.84;50.68;19807.75;5072381;28;20708;-62
2023/03/18 02:25:21;;;;;;;7.17;6.30;;;9.00;99.90;;;-141.84;50.49;19815.88;5071267;28;20605;-63
2023/03/18 02:27:58;;;;;;;9.47;7.10;;;9.00;99.90;;;-141.84;50.78;19809.78;5070654;28;20227;-61
2023/03/18 02:30:31;;;;;;;8.33;7.00;;;9.00;99.90;;;-141.84;49.91;19815.88;5070628;28;20228;-61
2023/03/18 02:33:01;;;;;;;10.03;6.20;;;9.10;99.90;;;-141.84;50.09;19797.59;5070608;28;20247;-61
2023/03/18 02:35:32;;;;;;;10.03;6.43;;;9.10;99.90;;;-141.84;50.67;19819.94;5070481;28;20196;-63
2023/03/18 02:38:00;;;;;;;8.43;6.10;;;9.00;99.90;;;-141.84;51.09;19781.31;5071301;28;20177;-62
2023/03/18 02:40:32;;;;;;;7.83;6.30;;;9.00;99.90;;;-141.84;51.02;19789.44;5070115;28;20224;-61
2023/03/18 02:43:19;;;;;;;9.93;6.50;;;9.00;99.90;;;-141.84;50.91;19793.50;5070513;28;20320;-61
2023/03/18 02:46:24;;;;;;;8.97;6.17;;;8.90;99.90;;;-141.84;50.59;19801.66;5070389;28;20231;-62
2023/03/18 02:48:53;;;;;;;9.13;6.73;;;9.00;99.90;;;-141.84;50.83;19809.78;5068514;28;20236;-62
2023/03/18 02:51:22;;;;;;;8.87;6.50;;;9.00;99.90;;;-141.84;50.85;19779.28;5068845;28;20246;-61
2023/03/18 02:53:51;;;;;;;10.83;6.37;;;8.90;99.90;;;-141.84;51.61;19763.03;5069998;28;20231;-61
2023/03/18 02:56:19;;;;;;;8.70;6.57;;;8.90;99.90;;;-141.84;50.79;19813.84;5070317;28;20205;-64
2023/03/18 02:58:48;;;;;;;7.67;5.80;;;8.90;99.90;;;-141.84;51.35;19781.31;5071356;28;20216;-60
2023/03/18 03:01:19;;;;;;;9.53;6.03;;;8.80;99.90;;;-141.84;51.42;19779.28;5070443;28;20294;-63
2023/03/18 03:03:48;;;;;;;9.27;6.17;;;8.80;99.90;;;-141.84;51.78;19773.19;5070657;28;20751;-62
2023/03/18 03:06:17;;;;;;;7.47;5.97;;;8.80;99.90;;;-141.84;52.06;19756.94;5070595;28;20235;-62
2023/03/18 03:08:46;;;;;;;10.53;6.03;;;8.70;99.90;;;-141.84;52.40;19767.09;5070273;28;20232;-61
2023/03/18 03:11:14;;;;;;;7.47;5.87;;;8.70;99.90;;;-141.84;51.81;19793.50;5070999;28;20215;-61
2023/03/18 03:13:44;;;;;;;7.90;6.00;;;8.70;99.90;;;-141.84;52.27;19736.59;5070591;28;20228;-61
2023/03/18 03:16:16;;;;;;;9.63;7.00;;;8.60;99.90;;;-141.84;52.56;19720.34;5070403;28;20240;-61
2023/03/18 03:18:44;;;;;;;7.87;6.07;;;8.60;99.90;;;-141.84;52.83;19730.50;5070623;28;20228;-63
2023/03/18 03:21:15;;;;;;;7.37;5.90;;;8.50;99.90;;;-141.84;53.14;19700.03;5070298;28;20233;-61
2023/03/18 03:23:44;;;;;;;10.47;6.10;;;8.40;99.90;;;-141.84;52.88;19714.25;5069682;28;20681;-63
2023/03/18 03:26:13;;;;;;;7.07;5.60;;;8.40;99.90;;;-141.84;53.14;19724.41;5071027;28;20204;-60
2023/03/18 03:28:41;;;;;;;6.80;5.90;;;8.40;99.90;;;-141.84;53.63;19700.03;5070263;28;20229;-63
2023/03/18 03:31:10;;;;;;;9.13;5.87;;;8.30;99.90;;;-141.84;53.93;19710.19;5070340;28;20233;-60
2023/03/18 03:33:42;;;;;;;7.40;5.70;;;8.30;99.90;;;-141.84;53.28;19736.59;5070225;28;20235;-62
2023/03/18 03:36:13;;;;;;;8.47;5.83;;;8.30;99.90;;;-141.84;53.32;19720.34;5070469;28;20364;-63
2023/03/18 03:38:42;;;;;;;9.03;5.97;;;8.30;99.90;;;-141.84;52.52;19736.59;5069924;28;20228;-62
2023/03/18 03:41:14;;;;;;;7.83;5.60;;;8.50;99.90;;;-141.84;53.03;19734.56;5070738;28;20632;-62
2023/03/18 03:43:43;;;;;;;9.50;6.07;;;8.50;99.90;;;-141.84;53.00;19714.25;5070207;28;20320;-61
2023/03/18 03:46:12;;;;;;;7.33;5.83;;;8.50;99.90;;;-141.84;52.02;19738.66;5069131;28;20225;-62
2023/03/18 03:48:42;;;;;;;8.50;5.73;;;8.60;99.90;;;-141.84;52.92;19744.75;5069867;28;20903;-62
2023/03/18 03:51:10;;;;;;;7.37;5.57;;;8.50;99.90;;;-141.84;52.41;19748.81;5069877;28;20726;-60
2023/03/18 03:53:38;;;;;;;8.77;5.70;;;8.60;99.90;;;-141.84;52.56;19752.88;5070034;28;20219;-61
2023/03/18 03:56:08;;;;;;;8.17;5.67;;;8.60;99.90;;;-141.84;52.80;19742.72;5070529;28;20219;-62
2023/03/18 03:58:36;;;;;;;7.70;5.83;;;8.60;99.90;;;-141.84;53.67;19712.22;5069902;28;20297;-63
2023/03/18 04:01:05;;;;;;;9.47;5.50;;;8.50;99.90;;;-141.84;53.69;19708.16;5070014;28;20329;-61
2023/03/18 04:03:33;;;;;;;10.13;5.53;;;8.40;99.90;;;-141.84;53.16;19740.69;5071096;28;20236;-61
2023/03/18 04:06:03;;;;;;;8.00;5.40;;;8.40;99.90;;;-141.84;53.72;19714.25;5072970;28;20216;-60
2023/03/18 04:08:31;;;;;;;8.73;5.43;;;8.40;99.90;;;-141.84;54.05;19689.88;5073071;28;20250;-61
2023/03/18 04:10:59;;;;;;;7.10;5.50;;;8.30;99.90;;;-141.84;53.70;19752.88;5073380;28;20201;-61
2023/03/18 04:13:27;;;;;;;7.37;5.00;;;8.30;99.90;;;-141.84;52.49;19785.38;5073339;28;20232;-62
2023/03/18 04:15:56;;;;;;;9.87;5.93;;;8.50;99.90;;;-141.84;52.66;19761.00;5073597;28;20252;-61
2023/03/18 04:18:24;;;;;;;8.33;5.53;;;8.60;99.90;;;-141.84;53.36;19734.56;5073536;28;20231;-71
2023/03/18 04:20:53;;;;;;;9.93;5.70;;;8.60;99.90;;;-141.84;53.84;19736.59;5073266;28;20289;-71
2023/03/18 04:23:22;;;;;;;8.00;5.73;;;8.50;99.90;;;-141.84;53.02;19779.28;5073389;28;20221;-70
2023/03/18 04:25:50;;;;;;;10.23;6.23;;;8.60;99.90;;;-141.84;53.72;19708.16;5074166;28;20205;-73
2023/03/18 04:28:18;;;;;;;9.27;5.40;;;8.50;99.90;;;-141.84;53.49;19777.25;5073288;28;20233;-71
2023/03/18 04:30:49;;;;;;;7.80;5.97;;;8.50;99.90;;;-141.84;54.06;19718.31;5073507;28;20235;-73
2023/03/18 04:33:18;;;;;;;7.77;5.53;;;8.50;99.90;;;-141.84;53.61;19704.09;5073512;28;20655;-73
2023/03/18 04:35:48;;;;;;;9.77;5.80;;;8.50;99.90;;;-141.84;53.98;19726.44;5073848;28;20311;-72
2023/03/18 04:38:16;;;;;;;7.80;5.53;;;8.50;99.90;;;-141.84;54.12;19736.59;5073981;28;20369;-72
2023/03/18 04:40:46;;;;;;;8.67;5.50;;;8.50;99.90;;;-141.84;53.40;19761.00;5073371;28;20229;-71
2023/03/18 04:43:14;;;;;;;7.50;5.80;;;8.60;99.90;;;-141.84;53.29;19777.25;5072738;28;20232;-71
2023/03/18 04:45:43;;;;;;;6.23;5.00;;;8.70;99.90;;;-141.84;52.77;19758.97;5072950;28;20232;-73
2023/03/18 04:48:12;;;;;;;6.60;5.10;;;8.70;99.90;;;-141.84;53.67;19744.75;5072300;28;20710;-74
2023/03/18 04:50:40;;;;;;;8.67;5.60;;;8.70;99.90;;;-141.84;53.84;19756.94;5072841;28;20231;-72
2023/03/18 04:53:08;;;;;;;8.40;5.73;;;8.70;99.90;;;-141.84;53.89;19750.84;5072938;28;20211;-71
2023/03/18 04:55:37;;;;;;;7.90;5.27;;;8.60;99.90;;;-141.84;53.12;19777.25;5072718;28;20232;-73
2023/03/18 04:58:06;;;;;;;7.23;5.87;;;8.70;99.90;;;-141.84;53.78;19761.00;5072508;28;20228;-71
2023/03/18 05:00:34;;;;;;;8.43;5.80;;;8.70;99.90;;;-141.84;52.96;19803.69;5073293;28;20229;-72
2023/03/18 05:03:03;;;;;;;10.10;5.63;;;8.70;99.90;;;-141.84;53.13;19813.84;5052778;28;20279;-73
2023/03/18 05:05:31;;;;;;;11.37;5.60;;;8.80;99.90;;;-141.84;53.52;19736.59;5052792;28;20216;-74
2023/03/18 05:08:00;;;;;;;7.40;5.60;;;8.80;99.90;;;-141.84;54.11;19722.38;5052946;28;20296;-70
2023/03/18 05:10:28;;;;;;;6.80;5.30;;;8.70;99.90;;;-141.84;54.19;19801.66;5070421;28;20234;-73
2023/03/18 05:12:56;;;;;;;7.33;5.20;;;8.70;99.90;;;-141.84;53.89;19742.72;5072547;28;20223;-74
2023/03/18 05:15:26;;;;;;;7.57;5.63;;;8.70;99.90;;;-141.84;53.65;19738.66;5071526;28;20251;-72
2023/03/18 05:17:54;;;;;;;5.93;4.83;;;8.70;99.90;;;-141.84;53.56;19789.44;5072521;28;20224;-72
2023/03/18 05:20:22;;;;;;;8.93;5.60;;;8.80;99.90;;;-141.84;53.73;19732.53;5072306;28;20228;-72
2023/03/18 05:22:51;;;;;;;7.43;5.33;;;8.80;99.90;;;-141.84;53.31;19761.00;5072722;28;20215;-71
2023/03/18 05:25:21;;;;;;;7.50;5.47;;;8.80;99.90;;;-141.84;53.60;19732.53;5072185;28;20234;-72
2023/03/18 05:27:49;;;;;;;7.87;5.63;;;8.80;99.90;;;-141.84;53.71;19765.06;5070470;28;20216;-71
2023/03/18 05:30:18;;;;;;;7.27;5.30;;;8.80;99.90;;;-141.84;54.68;19756.94;5071348;28;20236;-72
2023/03/18 05:32:47;;;;;;;9.50;5.90;;;8.70;99.90;;;-141.84;54.20;19726.44;5071910;28;20236;-71
2023/03/18 05:35:16;;;;;;;6.77;5.23;;;8.70;99.90;;;-141.84;54.35;19763.03;5072179;28;20570;-72
2023/03/18 05:37:45;;;;;;;8.07;5.77;;;8.70;99.90;;;-141.84;54.70;19754.91;5071597;28;20225;-71
2023/03/18 05:40:14;;;;;;;6.53;4.77;;;8.70;99.90;;;-141.84;54.47;19740.69;5071351;28;20231;-72
2023/03/18 05:42:42;;;;;;;8.20;5.27;;;8.70;99.90;;;-141.84;54.32;19758.97;5071305;28;20227;-72
2023/03/18 05:45:23;;;;;;;9.47;5.40;;;8.70;99.90;;;-141.84;54.85;19726.44;5071338;28;20224;-72
2023/03/18 05:47:52;;;;;;;8.27;4.93;;;8.70;99.90;;;-141.84;54.95;19724.41;5070530;28;20224;-71
2023/03/18 05:50:30;;;;;;;8.60;5.47;;;8.60;99.90;;;-141.84;55.21;19732.53;5070798;28;20200;-72
2023/03/18 05:52:59;;;;;;;6.67;5.07;;;8.60;99.90;;;-141.84;55.19;19726.44;5071171;28;20660;-72
2023/03/18 05:55:28;;;;;;;8.60;5.43;;;8.60;99.90;;;-141.84;55.36;19720.34;5070435;28;20714;-71
2023/03/18 05:57:57;;;;;;;7.03;5.37;;;8.60;99.90;;;-141.84;55.32;19728.47;5070653;28;20221;-70
2023/03/18 06:00:27;;;;;;;8.20;4.80;;;8.60;99.90;;;-141.84;55.32;19767.09;5071551;28;20258;-71
2023/03/18 06:02:58;;;;;;;7.07;4.50;;;8.60;99.90;;;-141.84;55.34;19730.50;5071394;28;20307;-73
2023/03/18 06:05:28;;;;;;;7.10;5.03;;;8.70;99.90;;;-141.84;55.43;19746.78;5070768;28;20186;-72
2023/03/18 06:07:57;;;;;;;6.80;5.17;;;8.70;99.90;;;-141.84;55.23;19746.78;5071187;28;20189;-72
2023/03/18 06:10:26;;;;;;;8.23;5.77;;;8.70;99.90;;;-141.84;55.33;19761.00;5070234;28;20254;-71
2023/03/18 06:12:55;;;;;;;8.20;5.03;;;8.70;99.90;;;-141.84;55.66;19728.47;5070545;28;20228;-72
2023/03/18 06:15:24;;;;;;;5.53;4.63;;;8.70;99.90;;;-141.84;55.75;19732.53;5070577;28;20243;-72
2023/03/18 06:17:52;;;;;;;9.50;5.30;;;8.70;99.90;;;-141.84;54.25;19797.59;5070873;28;20634;-71
2023/03/18 06:20:22;;;;;;;8.33;5.10;;;8.90;99.90;;;-141.84;55.17;19756.94;5070497;28;20229;-71
2023/03/18 06:22:50;;;;;;;8.77;5.87;;;8.90;99.90;;;-141.84;55.00;19783.34;5070923;28;20227;-72
2023/03/18 06:25:21;;;;;;;7.57;5.33;;;8.90;99.90;;;-141.84;54.11;19801.66;5070180;28;20271;-74
2023/03/18 06:27:49;;;;;;;7.80;5.23;;;9.10;99.90;;;-141.84;54.19;19807.75;5070472;28;20611;-72
2023/03/18 06:30:19;;;;;;;6.20;5.10;;;9.10;99.90;;;-141.84;53.41;19858.56;5070310;28;20227;-71
2023/03/18 06:32:47;;;;;;;7.50;5.73;;;9.20;99.90;;;-141.84;53.80;19854.50;5070645;28;20239;-73
2023/03/18 06:35:16;;;;;;;7.77;5.20;;;9.30;99.90;;;-141.84;53.97;19803.69;5070421;28;20607;-72
2023/03/18 06:37:45;;;;;;;7.87;5.50;;;9.30;99.90;;;-141.84;54.11;19791.47;5070061;28;20239;-73
2023/03/18 06:40:14;;;;;;;8.33;5.30;;;9.30;99.90;;;-141.84;54.06;19817.91;5070019;28;20224;-72
2023/03/18 06:42:43;;;;;;;8.03;5.60;;;9.30;99.90;;;-141.84;53.96;19803.69;5070339;28;20247;-73
2023/03/18 06:45:12;;;;;;;6.73;5.20;;;9.30;99.90;;;-141.84;54.22;19815.88;5070080;28;20228;-73
2023/03/18 06:47:41;;;;;;;6.30;5.27;;;9.40;99.90;;;-141.84;53.44;19813.84;5069119;28;20235;-71
2023/03/18 06:50:12;;;;;;;6.27;5.23;;;9.40;99.90;;;-141.84;54.10;19781.31;5070167;28;20209;-72
2023/03/18 06:52:41;;;;;;;7.43;4.73;;;9.50;99.90;;;-141.84;53.77;19826.03;5069978;28;20724;-72
2023/03/18 06:55:11;;;;;;;6.23;4.90;;;9.50;99.90;;;-141.84;53.53;19838.22;5069732;28;20303;-71
2023/03/18 06:57:40;;;;;;;7.83;5.00;;;9.60;99.90;;;-141.84;53.33;19860.59;5070058;28;20230;-73
2023/03/18 07:00:11;;;;;;;7.93;5.67;;;9.70;99.90;;;-141.84;52.69;19895.13;5070183;28;20256;-72
2023/03/18 07:02:39;;;;;;;9.53;5.30;;;9.80;99.90;;;-141.84;52.80;19905.28;5069958;28;20239;-72
2023/03/18 07:05:09;;;;;;;6.10;5.17;;;9.90;99.90;;;-141.84;51.95;19903.25;5070461;28;20205;-62
2023/03/18 07:07:37;;;;;;;7.13;5.37;;;10.00;99.90;;;-141.84;52.52;19931.72;5069776;28;20232;-63
2023/03/18 07:10:08;;;;;;;6.10;5.13;;;10.00;99.90;;;-141.84;52.67;19893.09;5070489;28;20307;-61
2023/03/18 07:12:39;;;;;;;6.10;4.60;;;10.00;99.90;;;-141.84;51.88;19935.78;5070004;28;20239;-62
2023/03/18 07:15:10;;;;;;;8.17;5.20;;;10.10;99.90;;;-141.84;52.40;19915.47;5069787;28;20936;-61
2023/03/18 07:17:38;;;;;;;7.90;5.10;;;10.20;99.90;;;-141.84;52.78;19917.50;5070034;28;20188;-62
2023/03/18 07:20:07;;;;;;;6.67;5.00;;;10.10;99.90;;;-141.84;52.40;19911.41;5070232;28;20205;-62
2023/03/18 07:22:36;;;;;;;8.20;5.70;;;10.20;99.90;;;-141.84;52.06;19950.00;5069295;28;20721;-61
2023/03/18 07:25:06;;;;;;;9.17;5.20;;;10.10;99.90;;;-141.84;52.03;19919.53;5069880;28;20224;-62
2023/03/18 07:27:34;;;;;;;7.17;5.73;;;10.10;99.90;;;-141.84;51.88;19911.41;5069529;28;20647;-61
2023/03/18 07:30:08;;;;;;;5.97;5.17;;;10.10;99.90;;;-141.84;51.19;19935.78;5069672;28;20219;-62
2023/03/18 07:32:37;;;;;;;6.43;4.90;;;10.30;99.90;;;-141.84;51.27;19974.41;5069665;28;20891;-61
2023/03/18 07:35:09;;;;;;;7.40;5.53;;;10.40;99.90;;;-141.84;50.75;19992.69;5070388;28;20558;-61
2023/03/18 07:37:39;;;;;;;6.40;5.17;;;10.50;99.90;;;-141.84;50.47;19998.78;5069743;28;20220;-62
2023/03/18 07:40:09;;;;;;;5.90;5.27;;;10.70;99.90;;;-141.84;49.90;20041.47;5073326;28;20224;-61
2023/03/18 07:42:37;;;;;;;10.03;6.50;;;10.80;99.90;;;-141.84;49.69;20049.59;5073288;28;20224;-62
2023/03/18 07:45:09;;;;;;;10.70;5.70;;;10.80;99.90;;;-141.84;50.05;20053.66;5073056;28;20232;-62
2023/03/18 07:47:37;;;;;;;8.70;5.70;;;10.90;99.90;;;-141.84;49.73;20053.66;5072929;28;20196;-62
2023/03/18 07:50:07;;;;;;;7.10;5.00;;;11.10;99.90;;;-141.84;49.93;20063.81;5070675;28;20227;-62
2023/03/18 07:52:36;;;;;;;10.03;5.47;;;11.10;99.90;;;-141.84;49.07;20110.56;5071868;28;20221;-62
2023/03/18 07:55:05;;;;;;;10.57;5.30;;;11.20;99.90;;;-141.84;49.20;20126.84;5072938;28;20311;-62
2023/03/18 07:57:34;;;;;;;6.67;5.30;;;11.30;99.90;;;-141.84;48.54;20086.19;5071918;28;20231;-61
2023/03/18 08:00:03;;;;;;;13.50;9.53;;;11.50;99.90;;;-141.84;48.71;20094.31;5073300;28;20220;-62
2023/03/18 08:02:34;;;;;;;9.77;6.13;;;11.50;99.90;;;-141.84;49.15;20088.22;5073161;28;20227;-61
2023/03/18 08:05:05;;;;;;;10.07;5.80;;;11.40;99.90;;;-141.84;49.13;20082.13;5073242;28;20688;-62
2023/03/18 08:07:34;;;;;;;6.63;5.23;;;11.40;99.90;;;-141.84;49.84;20069.94;5072762;28;20247;-62
2023/03/18 08:10:03;;;;;;;7.53;5.00;;;11.30;99.90;;;-141.84;49.72;20045.53;5074168;28;20232;-61
2023/03/18 08:12:31;;;;;;;7.47;5.23;;;11.20;99.90;;;-141.84;50.63;20037.41;5071694;28;20232;-62
2023/03/18 08:15:16;;;;;;;7.27;5.10;;;11.10;99.90;;;-141.84;51.18;20023.19;5071639;28;20225;-62
2023/03/18 08:17:46;;;;;;;5.40;4.90;;;11.00;99.90;;;-141.84;51.45;19994.72;5068570;28;21750;-62
2023/03/18 08:20:14;;;;;;;8.07;5.27;;;11.00;99.90;;;-141.84;51.22;20010.97;5073006;28;20232;-63
2023/03/18 08:22:44;;;;;;;7.80;5.20;;;10.90;99.90;;;-141.84;52.04;19986.59;5072290;28;20239;-62
2023/03/18 08:25:14;;;;;;;5.87;4.83;;;10.80;99.90;;;-141.84;51.70;19984.56;5072098;28;20299;-62
2023/03/18 08:27:42;;;;;;;5.90;4.67;;;10.90;99.90;;;-141.84;52.11;19988.63;5073547;28;20224;-62
2023/03/18 08:30:13;;;;;;;6.73;5.20;;;10.90;99.90;;;-141.84;51.24;20002.84;5073757;28;20258;-63
2023/03/18 08:32:42;;;;;;;6.93;5.60;;;10.90;99.90;;;-141.84;50.71;20037.41;5073663;28;20231;-62
2023/03/18 08:35:13;;;;;;;10.03;5.10;;;11.00;99.90;;;-141.84;50.81;20061.78;5074051;28;20197;-61
2023/03/18 08:37:41;;;;;;;5.50;4.83;;;11.00;99.90;;;-141.84;51.45;20008.94;5073208;28;20567;-62
2023/03/18 08:40:12;;;;;;;8.40;4.60;;;11.10;99.90;;;-141.84;51.69;20015.03;5073208;28;20232;-63
2023/03/18 08:42:40;;;;;;;7.63;5.23;;;11.00;99.90;;;-141.84;51.84;19994.72;5072702;28;20221;-61
2023/03/18 08:45:10;;;;;;;6.87;4.93;;;11.00;99.90;;;-141.84;51.59;20004.88;5071498;28;20232;-62
2023/03/18 08:47:38;;;;;;;9.00;5.03;;;11.00;99.90;;;-141.84;51.24;20051.63;5069753;28;20327;-62
2023/03/18 08:50:07;;;;;;;7.17;5.27;;;11.10;99.90;;;-141.84;51.11;20015.03;5069988;28;20569;-61
2023/03/18 08:52:38;;;;;;;7.00;4.80;;;11.10;99.90;;;-141.84;50.91;20049.59;5071388;28;20227;-63
2023/03/18 08:55:08;;;;;;;6.00;4.77;;;11.20;99.90;;;-141.84;50.50;20082.13;5072278;28;20224;-64
2023/03/18 08:57:37;;;;;;;5.93;4.83;;;11.30;99.90;;;-141.84;50.52;20082.13;5070566;28;20232;-62
2023/03/18 09:00:07;;;;;;;7.33;4.93;;;11.40;99.90;;;-141.84;50.83;20078.06;5071699;28;20229;-62
2023/03/18 09:02:36;;;;;;;5.67;4.43;;;11.40;99.90;;;-141.84;51.06;20069.94;5070710;28;20250;-63
2023/03/18 09:05:05;;;;;;;7.47;5.00;;;11.50;99.90;;;-141.84;50.26;20080.09;5071218;28;20225;-61
2023/03/18 09:07:34;;;;;;;7.40;5.17;;;11.60;99.90;;;-141.84;50.17;20128.88;5072052;28;20293;-62
2023/03/18 09:10:04;;;;;;;7.87;4.87;;;11.60;99.90;;;-141.84;49.48;20181.72;5072023;28;20312;-63
2023/03/18 09:12:33;;;;;;;6.57;5.27;;;11.90;99.90;;;-141.84;49.27;20200.00;5070565;28;20266;-61
2023/03/18 09:15:02;;;;;;;7.23;5.30;;;12.10;99.90;;;-141.84;49.05;20240.66;5070424;28;20227;-62
2023/03/18 09:17:30;;;;;;;7.43;5.23;;;12.30;99.90;;;-141.84;48.50;20232.53;5071452;28;20214;-62
2023/03/18 09:20:18;;;;;;;9.93;5.83;;;12.50;99.90;;;-141.84;46.69;20305.69;5067243;28;20274;-61
2023/03/18 09:22:49;;;;;;;5.50;4.80;;;12.80;99.90;;;-141.84;46.87;20340.25;5071442;28;20224;-61
2023/03/18 09:25:19;;;;;;;8.10;4.83;;;13.10;99.90;;;-141.84;46.94;20307.72;5071216;28;20243;-63
2023/03/18 09:27:47;;;;;;;7.67;5.23;;;13.30;99.90;;;-141.84;46.37;20368.72;5069822;28;20217;-62
2023/03/18 09:30:16;;;;;;;6.73;5.00;;;13.30;99.90;;;-141.84;46.55;20360.59;5064202;28;20232;-62
2023/03/18 09:32:44;;;;;;;6.33;4.50;;;13.40;99.90;;;-141.84;46.65;20358.56;5071200;28;20324;-62
2023/03/18 09:35:13;;;;;;;8.05;5.00;;;13.50;99.90;;;-141.84;46.83;20376.84;5071872;28;20680;-62
2023/03/18 09:37:42;;;;;;;6.67;4.77;;;13.50;99.90;;;-141.84;46.50;20407.34;5069529;28;20605;-63
2023/03/18 09:40:23;;;;;;;8.20;4.80;;;13.60;99.90;;;-141.84;45.45;20441.88;5070847;28;20248;-63
2023/03/18 09:43:09;;;;;;;8.40;5.07;;;13.80;99.90;;;-141.84;45.01;20480.50;5071110;28;20220;-61
2023/03/18 09:45:53;;;;;;;10.93;4.90;;;14.00;99.90;;;-141.84;45.39;20445.94;5071248;28;20679;-63
2023/03/18 09:49:17;;;;;;;6.93;4.50;;;14.10;99.90;;;-141.84;45.67;20484.56;5071299;28;20315;-64
2023/03/18 09:52:03;;;;;;;9.63;4.80;;;14.30;99.90;;;-141.84;44.64;20582.16;5043978;28;20221;-61
2023/03/18 09:54:38;;;;;;;6.60;4.38;;;14.40;99.90;;;-141.84;44.11;20610.59;5050432;28;20221;-61
2023/03/18 09:57:18;;;;;;;6.38;4.15;;;14.80;99.90;;;-141.84;43.51;20647.19;5053554;28;20220;-62
2023/03/18 09:59:53;;;;;;;7.47;4.88;;;15.20;99.90;;;-141.84;42.19;20793.56;5069813;28;20225;-61
2023/03/18 10:02:32;;;;;;;6.50;4.55;;;15.60;99.90;;;-141.84;42.56;20756.97;5070242;28;20200;-62
2023/03/18 10:05:05;;;;;;;7.20;4.45;;;15.70;99.90;;;-141.84;42.61;20773.22;5071035;28;20209;-61
2023/03/18 10:07:40;;;;;;;6.55;4.78;;;15.70;99.90;;;-141.84;42.85;20702.09;5068445;28;20319;-61
2023/03/18 10:10:18;;;;;;;5.65;4.25;;;15.80;99.90;;;-141.84;43.28;20693.94;5065732;28;20299;-64
2023/03/18 10:12:54;;;;;;;6.50;4.57;;;15.60;99.90;;;-141.84;42.49;20807.78;5070388;28;20221;-62
2023/03/18 10:15:30;;;;;;;4.95;4.45;;;15.80;99.90;;;-141.84;42.48;20754.94;5070584;28;20227;-63
2023/03/18 10:18:10;;;;;;;9.45;4.72;;;16.00;99.90;;;-141.84;42.43;20761.03;5069473;28;20723;-62
2023/03/18 10:20:55;;;;;;;6.85;4.60;;;16.10;99.90;;;-141.84;42.37;20803.72;5067609;28;20323;-62
2023/03/18 10:23:38;;;;;;;8.52;4.50;;;16.20;99.90;;;-141.84;41.80;20891.13;5069168;28;20200;-62
2023/03/18 10:26:16;;;;;;;5.50;4.32;;;16.40;99.90;;;-141.84;41.46;20891.13;5068348;28;20279;-63